Flight Track Log - Related Links

Times and Time Zones

All times are in EDT time to prevent confusion due to time zone crossing. See the QXE2633 flight status page for this flight to view local times or setup timezone preferences in your user account.

Time Position Orientation Groundspeed Altitude Reporting Facility
EDT Latitude Longitude Course Direction KTS MPH feet Rate Location/Type
Sat 03:27:00 PM 46.8000 -114.6614 270° West  Level FlightAware Approximate
Sat 03:28:00 PM 46.8143 -114.7798 280° West  Level FlightAware Approximate
Sat 03:29:00 PM 46.8000 -114.8983 258° West  Level Estimated
Sat 03:30:00 PM 46.7856 -115.0168 270° West  Level Estimated
Sat 03:31:00 PM 46.7711 -115.1353 246° West  Level Estimated
Sat 03:32:00 PM 46.7724 -115.2632 251° West  Level FlightAware Approximate
Sat 03:33:00 PM 46.7457 -115.3770 251° West  Level FlightAware Approximate
Sat 03:34:00 PM 46.7189 -115.4907 251° West  Level FlightAware Approximate
Sat 03:35:00 PM 46.6876 -115.6019 247° West  Level FlightAware Approximate
Sat 03:36:00 PM 46.7091 -115.7180 285° West  Level FlightAware Approximate
Sat 03:37:00 PM 46.6937 -115.8361 256° West  Level Estimated
Sat 03:38:00 PM 46.6758 -115.9535 258° West  Level FlightAware Approximate
Sat 03:39:00 PM 46.6578 -116.0708 257° West  Level FlightAware Approximate
Sat 03:40:00 PM 46.6397 -116.1880 257° West  Level FlightAware Approximate
Sat 03:41:00 PM 46.6214 -116.3051 257° West  Level FlightAware Approximate
Sat 03:42:00 PM 46.6031 -116.4222 257° West  Level FlightAware Approximate
Sat 03:43:00 PM 46.5846 -116.5392 257° West  Level FlightAware Approximate
Sat 03:44:00 PM 46.5660 -116.6561 257° West  Level FlightAware Approximate
Sat 03:45:00 PM 46.5473 -116.7729 257° West  Level FlightAware Approximate
Sat 03:46:00 PM 46.5285 -116.8896 257° West  Level FlightAware Approximate
Sat 03:47:00 PM 46.5095 -117.0063 257° West  Level FlightAware Approximate
Sat 03:48:00 PM 46.4904 -117.1228 257° West  Level FlightAware Approximate
Sat 03:49:00 PM 46.4733 -117.2271 257° West  Level FlightAware Approximate
Sat 03:50:00 PM 46.4560 -117.3313 257° West  Level FlightAware Approximate
Sat 03:51:00 PM 46.4386 -117.4355 256° West  Level FlightAware Approximate
Sat 03:52:00 PM 46.4212 -117.5396 256° West  Level FlightAware Approximate
Sat 03:53:00 PM 46.4036 -117.6436 256° West  Level FlightAware Approximate
Sat 03:54:00 PM 46.3860 -117.7476 256° West  Level FlightAware Approximate
Sat 03:55:00 PM 46.3682 -117.8515 256° West  Level FlightAware Approximate
Sat 03:56:00 PM 46.3504 -117.9553 256° West  Level FlightAware Approximate
Sat 03:57:00 PM 46.3325 -118.0590 256° West  Level FlightAware Approximate
Sat 03:58:00 PM 46.3122 -118.1725 254° West  Level FlightAware Approximate
Sat 03:59:00 PM 46.2920 -118.2753 254° West  Level FlightAware Approximate
Sat 04:00:00 PM 46.2716 -118.3780 254° West  Level FlightAware Approximate
Sat 04:01:00 PM 46.2511 -118.4806 254° West  Level FlightAware Approximate
Sat 04:02:00 PM 46.2306 -118.5831 254° West  Level FlightAware Approximate
Sat 04:03:00 PM 46.2100 -118.6856 254° West  Level FlightAware Approximate
Sat 04:04:00 PM 46.1892 -118.7880 254° West  Level FlightAware Approximate
Sat 04:05:00 PM 46.1684 -118.8903 254° West  Level FlightAware Approximate
Sat 04:06:00 PM 46.1475 -118.9925 254° West  Level FlightAware Approximate
Sat 04:07:00 PM 46.1265 -119.0947 254° West  Level FlightAware Approximate
Sat 04:08:00 PM 46.1054 -119.1968 253° West  Level FlightAware Approximate
Sat 04:09:00 PM 46.0826 -119.3065 253° West  Level FlightAware Approximate
Sat 04:10:00 PM 46.0597 -119.4161 253° West  Level FlightAware Approximate
Sat 04:11:00 PM 46.0367 -119.5257 253° West  Level FlightAware Approximate
Sat 04:12:00 PM 46.0136 -119.6351 253° West  Level FlightAware Approximate
Sat 04:13:00 PM 45.9904 -119.7445 253° West  Level FlightAware Approximate
Sat 04:14:00 PM 45.9671 -119.8537 253° West  Level FlightAware Approximate
Sat 04:15:00 PM 45.9436 -119.9629 253° West  Level FlightAware Approximate
Sat 04:16:00 PM 45.9200 -120.0719 253° West  Level FlightAware Approximate
Sat 04:17:00 PM 45.8962 -120.1808 253° West  Level FlightAware Approximate
Sat 04:18:00 PM 45.8724 -120.2897 253° West  Level FlightAware Approximate
Sat 04:19:00 PM 45.8484 -120.3984 252° West  Level FlightAware Approximate
Sat 04:20:00 PM 45.8234 -120.5066 250° West  Level FlightAware Approximate
Sat 04:21:00 PM 45.7941 -120.6125 248° West  Level FlightAware Approximate
Sat 04:22:00 PM 45.7684 -120.7202 253° West  Level FlightAware Approximate
Sat 04:23:00 PM 45.7450 -120.8290 253° West  Level FlightAware Approximate
Sat 04:24:00 PM 45.7224 -120.9381 254° West  Level FlightAware Approximate
Sat 04:25:00 PM 45.7006 -121.0474 254° West  Level FlightAware Approximate
Sat 04:26:00 PM 45.6779 -121.1564 251° West  Level FlightAware Approximate
Sat 04:27:00 PM 45.6524 -121.2640 251° West  Level FlightAware Approximate
Sat 04:28:00 PM 45.6268 -121.3716 251° West  Level FlightAware Approximate
Sat 04:29:00 PM 45.6010 -121.4790 251° West  Level FlightAware Approximate
Sat 04:30:00 PM 45.5762 -121.5868 252° West  Level FlightAware Approximate
Sat 04:31:00 PM 45.5513 -121.6945 252° West  Level FlightAware Approximate
Sat 04:32:00 PM 45.5259 -121.8009 248° West  Level FlightAware Approximate
Sat 04:33:00 PM 45.5012 -121.9073 283° West  Level FlightAware Approximate
Sat 04:34:00 PM 45.5183 -122.0180 277° West  Level FlightAware Approximate
Sat 04:35:00 PM 45.5285 -122.1304 277° West  Level FlightAware Approximate
Sat 04:36:00 PM 45.5500 -122.2353 270° West  Level FlightAware Approximate
Sat 04:37:00 PM 45.5500 -122.3460 270° West  Level FlightAware Approximate
Sat 04:38:00 PM 45.5667 -122.4443 270° West  Level FlightAware Approximate
Sat 04:39:00 PM 45.5790 -122.5533 282° West  Level FlightAware Approximate
Sat 04:40:00 PM 45.5833 -122.5833 282° West  Level FlightAware Approximate
Sat 04:41:00 PM 45.5887 -122.5969 282° West  Level Estimated
Sat 04:42:00 PM 45.5887 -122.5969 282° West  Level Estimated
Sat 04:43:00 PM 45.5887 -122.5969 282° West  Level Estimated
Sat 04:44:00 PM 45.5887 -122.5969 282° West  Level Estimated
Sat 04:45:00 PM 45.5887 -122.5969 282° West  Level Estimated
Sat 04:46:00 PM 45.5887 -122.5969 120° Southeast  Level Estimated
Sat 04:47:00 PM 45.5887 -122.5969 North  Level Estimated
Sat 04:48:00 PM 45.5887 -122.5969 North  Level Estimated

Login

Don't have an account? Register now (free) for customized features, flight alerts, and more!